Time;durP1;ratioP1;P1;durP2;ratioP2;P2;SDS_P1;SDS_P2;PMS_P1;PMS_P2;Temp;Humidity;BMP_temperature;BMP_pressure;BME280_temperature;BME280_humidity;BME280_pressure;Samples;Min_cycle;Max_cycle;Signal;HPM_P1;HPM_P2
2023/09/11 00:00:29;;;;;;;20.30;14.57;;;20.60;99.90;;;;;;5036078;28;20046;-60
2023/09/11 00:02:56;;;;;;;17.23;14.65;;;20.50;99.90;;;;;;5036057;28;20541;-59
2023/09/11 00:05:23;;;;;;;20.58;15.40;;;20.50;99.90;;;;;;5036407;28;20095;-62
2023/09/11 00:07:50;;;;;;;24.70;16.90;;;20.40;99.90;;;;;;5034615;28;20052;-56
2023/09/11 00:10:16;;;;;;;23.08;16.65;;;20.40;99.90;;;;;;5035744;28;20568;-61
2023/09/11 00:12:43;;;;;;;19.17;16.30;;;20.30;99.90;;;;;;5035595;28;20048;-59
2023/09/11 00:15:10;;;;;;;21.40;16.88;;;20.30;99.90;;;;;;5034406;28;20041;-61
2023/09/11 00:17:37;;;;;;;20.52;17.38;;;20.20;99.90;;;;;;5035508;28;20041;-56
2023/09/11 00:20:10;;;;;;;20.83;17.83;;;20.20;99.90;;;;;;5035574;28;20034;-59
2023/09/11 00:22:36;;;;;;;21.75;17.83;;;20.20;99.90;;;;;;5035434;28;20468;-61
2023/09/11 00:25:03;;;;;;;22.38;19.00;;;20.20;99.90;;;;;;5035681;28;20485;-61
2023/09/11 00:27:30;;;;;;;23.88;19.55;;;20.20;99.90;;;;;;5035800;28;20033;-59
2023/09/11 00:29:57;;;;;;;25.52;18.77;;;20.20;99.90;;;;;;5035500;28;20133;-61
2023/09/11 00:32:24;;;;;;;24.67;20.20;;;20.10;99.90;;;;;;5035776;28;20076;-59
2023/09/11 00:34:51;;;;;;;24.15;20.58;;;20.00;99.90;;;;;;5034347;28;20452;-60
2023/09/11 00:37:18;;;;;;;26.00;21.40;;;20.00;99.90;;;;;;5035708;28;20037;-55
2023/09/11 00:39:44;;;;;;;27.70;21.20;;;20.00;99.90;;;;;;5035589;28;20406;-61
2023/09/11 00:42:11;;;;;;;27.85;21.40;;;20.00;99.90;;;;;;5035520;28;20065;-58
2023/09/11 00:44:38;;;;;;;30.80;22.98;;;19.90;99.90;;;;;;5034127;28;20045;-58
2023/09/11 00:47:05;;;;;;;30.33;22.77;;;19.80;99.90;;;;;;5035196;28;20056;-61
2023/09/11 00:49:32;;;;;;;30.17;22.55;;;19.80;99.90;;;;;;5035738;28;20056;-59
2023/09/11 00:51:58;;;;;;;28.75;23.45;;;19.80;99.90;;;;;;5033678;28;20073;-54
2023/09/11 00:54:25;;;;;;;27.13;22.50;;;19.80;99.90;;;;;;5034967;28;20489;-54
2023/09/11 00:56:52;;;;;;;27.00;22.98;;;19.80;99.90;;;;;;5033261;28;20049;-59
2023/09/11 00:59:19;;;;;;;26.45;21.75;;;19.70;99.90;;;;;;5035005;28;20037;-56
2023/09/11 01:01:46;;;;;;;32.30;23.35;;;19.70;99.90;;;;;;5035084;28;20059;-56
2023/09/11 01:04:12;;;;;;;30.75;24.45;;;19.70;99.90;;;;;;5035134;28;20030;-61
2023/09/11 01:06:39;;;;;;;30.02;25.10;;;19.70;99.90;;;;;;5035268;28;20124;-57
2023/09/11 01:09:06;;;;;;;28.00;25.00;;;19.70;99.90;;;;;;5033603;28;20400;-57
2023/09/11 01:11:33;;;;;;;28.15;24.55;;;19.60;99.90;;;;;;5035115;28;20060;-57
2023/09/11 01:14:00;;;;;;;32.97;27.25;;;19.60;99.90;;;;;;5034986;28;20044;-61
2023/09/11 01:16:27;;;;;;;33.15;26.98;;;19.60;99.90;;;;;;5033235;28;20052;-59
2023/09/11 01:18:54;;;;;;;33.88;27.70;;;19.60;99.90;;;;;;5034712;28;20472;-59
2023/09/11 01:21:21;;;;;;;34.75;26.17;;;19.60;99.90;;;;;;5035336;28;20069;-58
2023/09/11 01:23:47;;;;;;;31.15;27.50;;;19.50;99.90;;;;;;5033067;28;20037;-60
2023/09/11 01:26:14;;;;;;;32.38;27.45;;;19.50;99.90;;;;;;5033081;28;20073;-54
2023/09/11 01:28:41;;;;;;;33.22;29.55;;;19.50;99.90;;;;;;5034555;28;20037;-58
2023/09/11 01:31:08;;;;;;;33.53;29.20;;;19.50;99.90;;;;;;5034798;28;20439;-62
2023/09/11 01:33:35;;;;;;;33.97;28.95;;;19.40;99.90;;;;;;5034808;28;20045;-57
2023/09/11 01:36:02;;;;;;;35.75;28.67;;;19.40;99.90;;;;;;5032799;28;20124;-56
2023/09/11 01:38:29;;;;;;;37.72;30.27;;;19.30;99.90;;;;;;5032840;28;20042;-58
2023/09/11 01:40:56;;;;;;;38.40;29.45;;;19.30;99.90;;;;;;5032812;28;20076;-59
2023/09/11 01:43:23;;;;;;;37.92;29.10;;;19.30;99.90;;;;;;5032554;28;20045;-56
2023/09/11 01:45:49;;;;;;;32.97;27.23;;;19.30;99.90;;;;;;5034545;28;20485;-58
2023/09/11 01:48:16;;;;;;;30.65;27.20;;;19.30;99.90;;;;;;5034511;28;20124;-51
2023/09/11 01:50:43;;;;;;;33.17;26.88;;;19.30;99.90;;;;;;5032403;28;20053;-58
2023/09/11 01:53:10;;;;;;;33.42;27.02;;;19.40;99.90;;;;;;5034463;28;20049;-58
2023/09/11 01:55:37;;;;;;;28.77;25.77;;;19.40;99.90;;;;;;5032935;28;20053;-60
2023/09/11 01:58:03;;;;;;;32.13;25.08;;;19.50;99.90;;;;;;5032528;28;20053;-60
2023/09/11 02:00:30;;;;;;;29.58;25.80;;;19.50;99.90;;;;;;5033011;28;20548;-56
2023/09/11 02:02:57;;;;;;;30.58;25.70;;;19.60;99.90;;;;;;5033930;28;20045;-57
2023/09/11 02:05:24;;;;;;;33.17;26.65;;;19.60;99.90;;;;;;5034154;28;20041;-61
2023/09/11 02:07:51;;;;;;;32.10;25.40;;;19.70;99.90;;;;;;5032064;28;20493;-56
2023/09/11 02:10:18;;;;;;;31.40;27.27;;;19.70;99.90;;;;;;5033646;28;20380;-57
2023/09/11 02:12:45;;;;;;;30.27;26.25;;;19.70;99.90;;;;;;5032410;28;20045;-56
2023/09/11 02:15:11;;;;;;;31.90;26.75;;;19.70;99.90;;;;;;5032186;28;20049;-60
2023/09/11 02:17:38;;;;;;;35.08;28.40;;;19.70;99.90;;;;;;5033507;28;20048;-62
2023/09/11 02:20:05;;;;;;;31.27;26.27;;;19.70;99.90;;;;;;5033422;28;20041;-62
2023/09/11 02:22:32;;;;;;;31.30;25.90;;;19.70;99.90;;;;;;5033761;28;20041;-59
2023/09/11 02:24:59;;;;;;;30.75;26.83;;;19.70;99.90;;;;;;5032628;28;20046;-58
2023/09/11 02:27:26;;;;;;;32.28;26.52;;;19.80;99.90;;;;;;5033241;28;20041;-57
2023/09/11 02:29:52;;;;;;;32.17;25.08;;;19.80;99.90;;;;;;5033516;28;20123;-59
2023/09/11 02:32:19;;;;;;;36.95;26.23;;;19.80;99.90;;;;;;5015533;28;20060;-58
2023/09/11 02:34:46;;;;;;;33.85;25.98;;;19.80;99.90;;;;;;5032165;28;20053;-59
2023/09/11 02:37:13;;;;;;;32.17;24.83;;;19.80;99.90;;;;;;5031607;28;20049;-60
2023/09/11 02:39:40;;;;;;;28.92;24.35;;;19.90;99.90;;;;;;5031797;28;20041;-57
2023/09/11 02:42:07;;;;;;;32.22;25.40;;;20.00;99.90;;;;;;5032268;28;20548;-57
2023/09/11 02:44:34;;;;;;;35.67;26.08;;;19.90;99.90;;;;;;5033235;28;20046;-55
2023/09/11 02:47:01;;;;;;;31.55;25.63;;;19.80;99.90;;;;;;5031948;28;20103;-59
2023/09/11 02:49:27;;;;;;;32.70;25.45;;;19.80;99.90;;;;;;5032233;28;20064;-59
2023/09/11 02:51:55;;;;;;;29.65;25.20;;;19.80;99.90;;;;;;5031658;28;20045;-59
2023/09/11 02:54:22;;;;;;;37.92;25.73;;;19.80;99.90;;;;;;5032993;28;20103;-61
2023/09/11 02:56:48;;;;;;;31.90;24.25;;;19.90;99.90;;;;;;5032007;28;20045;-60
2023/09/11 02:59:15;;;;;;;32.97;25.15;;;19.80;99.90;;;;;;5031849;28;20057;-59
2023/09/11 03:01:44;;;;;;;39.70;27.13;;;19.80;99.90;;;;;;5032742;28;20115;-58
2023/09/11 03:04:11;;;;;;;36.72;26.42;;;19.80;99.90;;;;;;5031623;28;20096;-61
2023/09/11 03:06:38;;;;;;;36.95;27.02;;;19.80;99.90;;;;;;5031692;28;20439;-61
2023/09/11 03:09:05;;;;;;;38.97;28.00;;;19.70;99.90;;;;;;5031937;28;20052;-60
2023/09/11 03:11:33;;;;;;;39.65;27.52;;;19.70;99.90;;;;;;5031847;28;20060;-60
2023/09/11 03:14:00;;;;;;;38.75;27.73;;;19.80;99.90;;;;;;5031396;28;20053;-56
2023/09/11 03:16:27;;;;;;;38.60;27.02;;;19.70;99.90;;;;;;5031285;28;20059;-58
2023/09/11 03:18:57;;;;;;;36.88;26.55;;;19.80;99.90;;;;;;5031596;28;20042;-59
2023/09/11 03:21:24;;;;;;;37.10;26.63;;;19.80;99.90;;;;;;5032868;28;20048;-58
2023/09/11 03:23:51;;;;;;;36.25;26.00;;;19.80;99.90;;;;;;5031458;28;20045;-60
2023/09/11 03:26:18;;;;;;;39.10;27.35;;;19.70;99.90;;;;;;5031964;28;20041;-59
2023/09/11 03:28:49;;;;;;;38.40;26.65;;;19.70;99.90;;;;;;5031320;28;20053;-56
2023/09/11 03:31:20;;;;;;;39.53;28.20;;;19.70;99.90;;;;;;5035674;28;20049;-61
2023/09/11 03:33:47;;;;;;;33.58;26.83;;;19.70;99.90;;;;;;5035766;28;20041;-60
2023/09/11 03:36:15;;;;;;;36.38;26.00;;;19.70;99.90;;;;;;5035374;28;20607;-59
2023/09/11 03:38:42;;;;;;;35.00;26.98;;;19.60;99.90;;;;;;5035201;28;20041;-58
2023/09/11 03:41:10;;;;;;;35.17;26.77;;;19.60;99.90;;;;;;5018533;28;20073;-61
2023/09/11 03:43:37;;;;;;;36.10;27.02;;;19.70;99.90;;;;;;5035166;28;20468;-60
2023/09/11 03:46:04;;;;;;;39.13;27.80;;;19.70;99.90;;;;;;5035113;28;20049;-58
2023/09/11 03:48:35;;;;;;;36.78;26.65;;;19.60;99.90;;;;;;5019835;28;20433;-60
2023/09/11 03:51:03;;;;;;;38.85;27.17;;;19.70;99.90;;;;;;5035248;28;20060;-56
2023/09/11 03:53:29;;;;;;;32.97;26.08;;;19.70;99.90;;;;;;5034890;28;20077;-61
2023/09/11 03:55:58;;;;;;;32.63;26.02;;;19.70;99.90;;;;;;5034896;28;20433;-64
2023/09/11 03:58:25;;;;;;;35.40;24.98;;;19.80;99.90;;;;;;5034818;28;20507;-60
2023/09/11 04:00:52;;;;;;;30.08;24.67;;;19.80;99.90;;;;;;5034947;28;20120;-54
2023/09/11 04:03:18;;;;;;;34.80;25.33;;;19.70;99.90;;;;;;5036448;28;20051;-59
2023/09/11 04:05:46;;;;;;;32.45;24.85;;;19.70;99.90;;;;;;5036340;28;20048;-61
2023/09/11 04:08:12;;;;;;;30.52;23.83;;;19.80;99.90;;;;;;5035898;28;20076;-61
2023/09/11 04:10:39;;;;;;;30.95;23.60;;;19.80;99.90;;;;;;5034579;28;20056;-60
2023/09/11 04:13:06;;;;;;;30.75;23.73;;;19.80;99.90;;;;;;5036239;28;20046;-58
2023/09/11 04:15:33;;;;;;;29.13;23.50;;;19.80;99.90;;;;;;5034842;28;20053;-58
2023/09/11 04:17:59;;;;;;;27.92;22.83;;;19.80;99.90;;;;;;5035834;28;20057;-52
2023/09/11 04:20:32;;;;;;;26.25;21.75;;;19.80;99.90;;;;;;5034703;28;20042;-60
2023/09/11 04:23:01;;;;;;;26.38;21.95;;;19.80;99.90;;;;;;5035015;28;20129;-60
2023/09/11 04:25:28;;;;;;;27.17;20.90;;;19.80;99.90;;;;;;5034434;28;20049;-56
2023/09/11 04:27:55;;;;;;;29.67;21.10;;;19.80;99.90;;;;;;5034533;28;20477;-58
2023/09/11 04:30:21;;;;;;;24.65;19.75;;;19.80;99.90;;;;;;5035711;28;20507;-59
2023/09/11 04:32:48;;;;;;;23.95;19.67;;;19.80;99.90;;;;;;5035937;28;20057;-59
2023/09/11 04:35:15;;;;;;;26.10;19.35;;;19.80;99.90;;;;;;5034102;28;20077;-59
2023/09/11 04:37:42;;;;;;;24.60;19.98;;;19.80;99.90;;;;;;5034302;28;20107;-59
2023/09/11 04:40:09;;;;;;;26.10;19.63;;;19.80;99.90;;;;;;5034639;28;20092;-61
2023/09/11 04:42:36;;;;;;;22.80;18.98;;;19.80;99.90;;;;;;5033855;28;20065;-60
2023/09/11 04:45:03;;;;;;;22.67;17.30;;;19.80;99.90;;;;;;5034526;28;20045;-60
2023/09/11 04:47:31;;;;;;;22.67;18.15;;;19.70;99.90;;;;;;5034025;28;20137;-58
2023/09/11 04:49:59;;;;;;;25.63;17.58;;;19.70;99.90;;;;;;5034433;28;20481;-58
2023/09/11 04:52:26;;;;;;;21.33;17.92;;;19.70;99.90;;;;;;5035656;28;20128;-59
2023/09/11 04:54:53;;;;;;;21.77;16.92;;;19.80;99.90;;;;;;5034978;28;20048;-58
2023/09/11 04:57:20;;;;;;;21.35;17.33;;;19.80;99.90;;;;;;5034581;28;20413;-59
2023/09/11 04:59:47;;;;;;;20.67;17.17;;;19.80;99.90;;;;;;5033827;28;20129;-56
2023/09/11 05:02:14;;;;;;;20.33;15.38;;;19.80;99.90;;;;;;5033526;28;20044;-58
2023/09/11 05:04:41;;;;;;;19.10;15.35;;;19.90;99.90;;;;;;5033747;28;20452;-58
2023/09/11 05:07:08;;;;;;;18.60;14.60;;;19.80;99.90;;;;;;5034863;28;20473;-58
2023/09/11 05:09:35;;;;;;;21.52;15.65;;;19.80;99.90;;;;;;5035113;28;20037;-56
2023/09/11 05:12:01;;;;;;;22.05;15.50;;;19.80;99.90;;;;;;5033533;28;20435;-59
2023/09/11 05:14:28;;;;;;;18.50;13.90;;;19.80;99.90;;;;;;5035250;28;20050;-59
2023/09/11 05:16:55;;;;;;;16.60;13.18;;;19.90;99.90;;;;;;5033205;28;20038;-59
2023/09/11 05:19:23;;;;;;;15.18;11.60;;;19.90;99.90;;;;;;5033258;28;20083;-55
2023/09/11 05:21:50;;;;;;;16.38;12.63;;;19.90;99.90;;;;;;5033281;28;20381;-55
2023/09/11 05:24:17;;;;;;;15.45;12.88;;;19.90;99.90;;;;;;5034511;28;20493;-62
2023/09/11 05:26:43;;;;;;;15.60;12.38;;;19.90;99.90;;;;;;5034638;28;20054;-59
2023/09/11 05:29:10;;;;;;;13.77;11.80;;;19.90;99.90;;;;;;5034429;28;20556;-61
2023/09/11 05:31:37;;;;;;;16.48;12.68;;;19.90;99.90;;;;;;5034414;28;20045;-57
2023/09/11 05:34:04;;;;;;;16.40;12.55;;;19.90;99.90;;;;;;5034452;28;20052;-60
2023/09/11 05:36:31;;;;;;;14.50;11.15;;;19.90;99.90;;;;;;5034405;28;20049;-56
2023/09/11 05:38:57;;;;;;;13.32;11.02;;;19.90;99.90;;;;;;5034789;28;20064;-58
2023/09/11 05:41:25;;;;;;;14.57;12.07;;;19.80;99.90;;;;;;5034205;28;20068;-60
2023/09/11 05:43:52;;;;;;;17.17;11.45;;;19.90;99.90;;;;;;5033332;28;20038;-60
2023/09/11 05:46:19;;;;;;;14.40;10.88;;;19.90;99.90;;;;;;5034270;28;20125;-60
2023/09/11 05:48:46;;;;;;;15.90;11.20;;;19.90;99.90;;;;;;5034035;28;20099;-58
2023/09/11 05:51:14;;;;;;;15.93;10.85;;;19.90;99.90;;;;;;5034100;28;20056;-61
2023/09/11 05:53:40;;;;;;;17.17;11.40;;;20.00;99.90;;;;;;5033306;28;20515;-58
2023/09/11 05:56:07;;;;;;;15.07;11.35;;;20.00;99.90;;;;;;5034239;28;20060;-59
2023/09/11 05:58:34;;;;;;;16.73;11.32;;;19.90;99.90;;;;;;5033819;28;20041;-58
2023/09/11 06:01:01;;;;;;;15.45;10.73;;;19.90;99.90;;;;;;5034052;28;20414;-62
2023/09/11 06:03:28;;;;;;;14.32;10.88;;;20.00;99.90;;;;;;5033787;28;20048;-57
2023/09/11 06:05:55;;;;;;;14.45;10.00;;;20.00;99.90;;;;;;5033945;28;20037;-60
2023/09/11 06:08:21;;;;;;;13.35;10.43;;;20.10;99.90;;;;;;5034018;28;20128;-59
2023/09/11 06:10:48;;;;;;;12.75;10.05;;;20.10;99.90;;;;;;5033729;28;20041;-57
2023/09/11 06:13:15;;;;;;;13.43;9.80;;;20.10;99.90;;;;;;5033566;28;20077;-58
2023/09/11 06:15:42;;;;;;;15.05;10.55;;;20.10;99.90;;;;;;5033501;28;20045;-61
2023/09/11 06:18:09;;;;;;;13.65;10.50;;;20.10;99.90;;;;;;5033673;28;20075;-56
2023/09/11 06:20:37;;;;;;;13.65;10.70;;;20.10;99.90;;;;;;5033613;28;20039;-60
2023/09/11 06:23:04;;;;;;;13.07;10.73;;;20.10;99.90;;;;;;5033908;28;20037;-59
2023/09/11 06:25:30;;;;;;;15.95;10.75;;;20.10;99.90;;;;;;5032058;28;20049;-58
2023/09/11 06:27:57;;;;;;;16.80;10.52;;;20.00;99.90;;;;;;5032055;28;20140;-59
2023/09/11 06:30:24;;;;;;;15.00;9.50;;;20.10;99.90;;;;;;5033303;28;20037;-58
2023/09/11 06:32:51;;;;;;;15.23;9.63;;;20.20;99.90;;;;;;5033315;28;20044;-61
2023/09/11 06:35:18;;;;;;;13.57;10.20;;;20.20;99.90;;;;;;5033640;28;20389;-57
2023/09/11 06:37:45;;;;;;;12.82;9.73;;;20.20;99.90;;;;;;5033514;28;20047;-59
2023/09/11 06:40:11;;;;;;;12.63;8.77;;;20.30;99.90;;;;;;5032930;28;20162;-63
2023/09/11 06:42:38;;;;;;;14.57;9.35;;;20.30;99.90;;;;;;5032197;28;20044;-60
2023/09/11 06:45:05;;;;;;;12.55;9.60;;;20.30;99.90;;;;;;5032802;28;20037;-58
2023/09/11 06:47:32;;;;;;;14.82;8.45;;;20.40;99.90;;;;;;5032867;28;20050;-56
2023/09/11 06:49:59;;;;;;;11.52;8.93;;;20.40;99.90;;;;;;5032021;28;20045;-57
2023/09/11 06:52:26;;;;;;;14.95;9.48;;;20.40;99.90;;;;;;5032878;28;20115;-61
2023/09/11 06:54:54;;;;;;;12.48;9.15;;;20.50;99.90;;;;;;5032708;28;20046;-59
2023/09/11 06:57:21;;;;;;;13.80;8.73;;;20.60;99.90;;;;;;5032366;28;20121;-59
2023/09/11 06:59:48;;;;;;;11.23;8.70;;;20.70;99.90;;;;;;5031781;28;20060;-61
2023/09/11 07:02:15;;;;;;;12.95;8.40;;;20.70;99.90;;;;;;5032880;28;20087;-59
2023/09/11 07:04:41;;;;;;;11.35;7.88;;;20.80;99.90;;;;;;5033789;28;20045;-57
2023/09/11 07:07:08;;;;;;;11.93;8.05;;;20.90;99.90;;;;;;5036635;28;20042;-59
2023/09/11 07:09:35;;;;;;;12.50;8.10;;;21.00;99.90;;;;;;5036699;28;20124;-63
2023/09/11 07:12:02;;;;;;;11.02;7.93;;;21.10;99.90;;;;;;5036711;28;20085;-60
2023/09/11 07:14:29;;;;;;;11.25;8.07;;;21.10;99.90;;;;;;5036481;28;20515;-58
2023/09/11 07:17:00;;;;;;;11.60;7.68;;;21.20;99.90;;;;;;5036557;28;20048;-57
2023/09/11 07:19:27;;;;;;;12.18;7.55;;;21.20;99.90;;;;;;5036620;28;20033;-59
2023/09/11 07:21:53;;;;;;;10.93;7.90;;;21.30;99.90;;;;;;5036607;28;20155;-58
2023/09/11 07:24:20;;;;;;;11.15;7.93;;;21.40;99.90;;;;;;5036553;28;20044;-61
2023/09/11 07:26:47;;;;;;;11.70;7.43;;;21.40;99.90;;;;;;5036383;28;20052;-58
2023/09/11 07:29:14;;;;;;;11.90;8.05;;;21.50;99.90;;;;;;5032315;28;20119;-60
2023/09/11 07:31:41;;;;;;;10.60;7.78;;;21.40;99.90;;;;;;5035140;28;20416;-57
2023/09/11 07:34:08;;;;;;;11.30;7.60;;;21.40;99.90;;;;;;5035274;28;20124;-59
2023/09/11 07:36:36;;;;;;;9.77;7.10;;;21.40;99.90;;;;;;5031764;28;20156;-59
2023/09/11 07:39:03;;;;;;;13.65;7.65;;;21.50;99.90;;;;;;5035307;28;20049;-58
2023/09/11 07:41:30;;;;;;;12.32;7.70;;;21.40;99.90;;;;;;5035884;28;20048;-61
2023/09/11 07:43:58;;;;;;;11.73;7.05;;;21.40;99.90;;;;;;5035733;28;20085;-59
2023/09/11 07:46:25;;;;;;;11.88;7.05;;;21.40;99.90;;;;;;5034239;28;20041;-57
2023/09/11 07:48:52;;;;;;;14.63;8.25;;;21.40;99.90;;;;;;5034922;28;20044;-59
2023/09/11 07:51:20;;;;;;;11.00;6.97;;;21.50;99.90;;;;;;5035634;28;20065;-58
2023/09/11 07:53:47;;;;;;;11.65;7.03;;;21.40;99.90;;;;;;5035483;28;20056;-59
2023/09/11 07:56:14;;;;;;;10.50;7.30;;;21.40;99.90;;;;;;5035105;28;20056;-60
2023/09/11 07:58:40;;;;;;;12.48;7.65;;;21.40;99.90;;;;;;5034841;28;20062;-64
2023/09/11 08:01:08;;;;;;;9.30;6.70;;;21.40;99.90;;;;;;5033730;28;20993;-56
2023/09/11 08:03:35;;;;;;;10.05;6.88;;;21.30;99.90;;;;;;5035301;28;20037;-56
2023/09/11 08:06:05;;;;;;;9.23;6.20;;;21.40;99.90;;;;;;5035476;28;20145;-60
2023/09/11 08:08:31;;;;;;;11.55;6.80;;;21.40;99.90;;;;;;5034963;28;20069;-59
2023/09/11 08:10:58;;;;;;;9.45;7.43;;;21.40;99.90;;;;;;5034985;28;20092;-57
2023/09/11 08:13:25;;;;;;;10.23;7.10;;;21.50;99.90;;;;;;5035236;28;20412;-60
2023/09/11 08:15:52;;;;;;;10.40;7.18;;;21.50;99.90;;;;;;5034135;28;20059;-59
2023/09/11 08:18:19;;;;;;;12.07;7.60;;;21.40;99.90;;;;;;5034145;28;20200;-60
2023/09/11 08:20:46;;;;;;;10.75;7.38;;;21.50;99.90;;;;;;5034989;28;20034;-56
2023/09/11 08:23:13;;;;;;;11.07;7.47;;;21.50;99.90;;;;;;5034325;28;20040;-58
2023/09/11 08:25:40;;;;;;;15.63;8.02;;;21.50;99.90;;;;;;5034676;28;20682;-60
2023/09/11 08:28:07;;;;;;;14.15;7.82;;;21.60;99.90;;;;;;5034375;28;20052;-61
2023/09/11 08:30:34;;;;;;;11.30;7.72;;;21.70;99.90;;;;;;5034471;28;20041;-58
2023/09/11 08:33:03;;;;;;;11.25;7.18;;;21.80;99.90;;;;;;5035177;28;20041;-59
2023/09/11 08:35:30;;;;;;;11.52;7.63;;;21.90;99.90;;;;;;5034703;28;20076;-59
2023/09/11 08:37:56;;;;;;;12.77;8.00;;;22.00;99.90;;;;;;5034469;28;20044;-54
2023/09/11 08:40:23;;;;;;;12.60;7.93;;;22.00;99.90;;;;;;5034296;28;20049;-56
2023/09/11 08:42:50;;;;;;;13.85;9.18;;;22.10;99.90;;;;;;5033048;28;20070;-60
2023/09/11 08:45:17;;;;;;;13.68;8.07;;;22.10;99.90;;;;;;5034072;28;20053;-60
2023/09/11 08:47:43;;;;;;;15.25;8.77;;;22.10;99.90;;;;;;5034384;28;20048;-59
2023/09/11 08:50:10;;;;;;;13.43;9.27;;;22.10;99.90;;;;;;5030940;28;20056;-61
2023/09/11 08:52:37;;;;;;;12.38;8.93;;;22.10;99.90;;;;;;5034541;28;20052;-58
2023/09/11 08:55:04;;;;;;;14.88;9.02;;;22.20;99.90;;;;;;5034529;28;20051;-60
2023/09/11 08:57:32;;;;;;;13.85;8.70;;;22.30;99.90;;;;;;5033765;28;20052;-62
2023/09/11 08:59:59;;;;;;;13.57;8.82;;;22.30;99.90;;;;;;5033178;28;20044;-60
2023/09/11 09:02:25;;;;;;;11.75;8.85;;;22.40;99.90;;;;;;5033403;28;20045;-58
2023/09/11 09:04:52;;;;;;;13.32;8.93;;;22.40;99.90;;;;;;5031820;28;20072;-60
2023/09/11 09:07:19;;;;;;;14.38;9.40;;;22.50;99.90;;;;;;5029042;28;20037;-60
2023/09/11 09:09:46;;;;;;;13.68;9.25;;;22.30;99.90;;;;;;5033844;28;20056;-57
2023/09/11 09:12:13;;;;;;;13.90;9.07;;;22.20;99.90;;;;;;5034103;28;20366;-60
2023/09/11 09:14:40;;;;;;;15.75;9.00;;;22.20;99.90;;;;;;5033403;28;20046;-60
2023/09/11 09:17:06;;;;;;;12.95;7.95;;;22.30;99.90;;;;;;5033479;28;20092;-61
2023/09/11 09:19:33;;;;;;;13.95;8.40;;;22.30;99.90;;;;;;5034126;28;20388;-60
2023/09/11 09:22:00;;;;;;;12.15;8.00;;;22.30;99.90;;;;;;5034242;28;20048;-58
2023/09/11 09:24:27;;;;;;;10.65;7.10;;;22.30;99.90;;;;;;5033861;28;20037;-58
2023/09/11 09:26:53;;;;;;;10.40;5.90;;;22.40;99.90;;;;;;5032777;28;20045;-53
2023/09/11 09:29:20;;;;;;;9.88;5.38;;;22.30;99.90;;;;;;5033894;28;20041;-57
2023/09/11 09:31:47;;;;;;;8.88;4.63;;;22.30;99.90;;;;;;5032927;28;20045;-59
2023/09/11 09:34:14;;;;;;;7.07;4.35;;;22.20;99.90;;;;;;5032911;28;20469;-63
2023/09/11 09:36:41;;;;;;;11.45;4.45;;;22.20;99.90;;;;;;5032927;28;20037;-56
2023/09/11 09:39:08;;;;;;;8.73;4.15;;;22.20;99.90;;;;;;5033221;28;20095;-56
2023/09/11 09:41:34;;;;;;;11.43;4.30;;;22.20;99.90;;;;;;5031131;28;20519;-51
2023/09/11 09:44:01;;;;;;;9.18;4.78;;;22.10;99.90;;;;;;5033510;28;20048;-59
2023/09/11 09:46:28;;;;;;;6.82;4.75;;;22.00;99.90;;;;;;5033119;28;20033;-58
2023/09/11 09:48:55;;;;;;;9.68;4.90;;;22.00;99.90;;;;;;5029217;28;20468;-59
2023/09/11 09:51:22;;;;;;;9.77;4.32;;;22.00;99.90;;;;;;5027006;28;20049;-58
2023/09/11 09:53:49;;;;;;;8.55;4.20;;;22.10;99.90;;;;;;5026212;28;20476;-59
2023/09/11 09:56:16;;;;;;;9.57;4.22;;;22.10;99.90;;;;;;5032009;28;20473;-54
2023/09/11 09:58:43;;;;;;;8.75;4.25;;;22.10;99.90;;;;;;5032485;28;20084;-59
2023/09/11 10:01:10;;;;;;;7.70;3.85;;;22.10;99.90;;;;;;5033151;28;20524;-58
2023/09/11 10:03:38;;;;;;;7.07;3.65;;;22.20;99.90;;;;;;5032881;28;20124;-60
2023/09/11 10:06:05;;;;;;;7.10;3.88;;;22.40;99.90;;;;;;5033062;28;20060;-55
2023/09/11 10:08:32;;;;;;;5.60;3.50;;;22.40;99.90;;;;;;5031856;28;20080;-60
2023/09/11 10:10:59;;;;;;;8.50;3.60;;;22.40;99.90;;;;;;5033219;28;20116;-53
2023/09/11 10:13:27;;;;;;;6.60;3.15;;;22.40;99.90;;;;;;5033006;28;20045;-55
2023/09/11 10:15:54;;;;;;;10.48;3.33;;;22.50;99.90;;;;;;5032291;28;20575;-58
2023/09/11 10:18:21;;;;;;;12.27;3.20;;;22.50;99.90;;;;;;5031298;28;20038;-56
2023/09/11 10:20:49;;;;;;;5.05;3.13;;;22.50;99.90;;;;;;5032690;28;20124;-63
2023/09/11 10:23:15;;;;;;;4.32;2.78;;;22.50;99.90;;;;;;5032308;28;20041;-55
2023/09/11 10:25:42;;;;;;;5.43;2.88;;;22.50;99.90;;;;;;5031989;28;20242;-61
2023/09/11 10:28:09;;;;;;;5.10;3.00;;;22.40;99.90;;;;;;5032516;28;20047;-61
2023/09/11 10:30:36;;;;;;;6.45;2.80;;;22.40;99.90;;;;;;5032848;28;20045;-60
2023/09/11 10:33:03;;;;;;;10.85;3.00;;;22.40;99.90;;;;;;5033021;28;20052;-59
2023/09/11 10:35:31;;;;;;;5.88;2.60;;;22.40;99.90;;;;;;5032728;28;20128;-55
2023/09/11 10:37:58;;;;;;;6.15;2.53;;;22.50;99.90;;;;;;5032928;28;20461;-60
2023/09/11 10:40:24;;;;;;;7.05;2.50;;;22.50;99.90;;;;;;5031550;28;20049;-62
2023/09/11 10:42:52;;;;;;;12.98;2.88;;;22.50;99.90;;;;;;5023288;28;20083;-58
2023/09/11 10:45:18;;;;;;;9.73;2.70;;;22.60;99.90;;;;;;5033068;28;20394;-59
2023/09/11 10:47:45;;;;;;;5.05;2.67;;;22.60;99.90;;;;;;5035095;28;20046;-61
2023/09/11 10:50:12;;;;;;;7.40;2.55;;;22.70;99.90;;;;;;5033685;28;20052;-58
2023/09/11 10:52:39;;;;;;;7.90;2.60;;;22.80;99.90;;;;;;5032100;28;20117;-57
2023/09/11 10:55:06;;;;;;;9.77;2.38;;;22.90;99.90;;;;;;5032639;28;20068;-53
2023/09/11 10:57:32;;;;;;;5.35;2.38;;;23.00;99.90;;;;;;5032324;28;20052;-59
2023/09/11 10:59:59;;;;;;;9.52;2.40;;;23.10;99.90;;;;;;5032525;28;20041;-54
2023/09/11 11:02:26;;;;;;;8.05;2.45;;;23.20;99.90;;;;;;5032565;28;20038;-57
2023/09/11 11:04:53;;;;;;;4.72;2.22;;;23.30;99.90;;;;;;5032230;28;20152;-60
2023/09/11 11:07:20;;;;;;;6.38;2.00;;;23.40;99.90;;;;;;5032155;28;20050;-60
2023/09/11 11:09:47;;;;;;;9.15;2.10;;;23.50;99.90;;;;;;5030882;28;20140;-53
2023/09/11 11:12:15;;;;;;;6.47;2.35;;;23.50;99.90;;;;;;5032360;28;20111;-58
2023/09/11 11:14:42;;;;;;;10.60;2.00;;;23.60;99.90;;;;;;5031650;28;20123;-60
2023/09/11 11:17:10;;;;;;;17.08;2.88;;;23.70;99.90;;;;;;5032427;28;20125;-57
2023/09/11 11:19:37;;;;;;;8.27;2.53;;;23.70;99.50;;;;;;5032213;28;20045;-58
2023/09/11 11:22:04;;;;;;;4.45;2.00;;;23.70;99.30;;;;;;5031693;28;20465;-57
2023/09/11 11:24:31;;;;;;;6.90;2.35;;;23.60;99.60;;;;;;5032409;28;20041;-56
2023/09/11 11:26:58;;;;;;;8.60;2.42;;;23.70;99.70;;;;;;5031585;28;20037;-55
2023/09/11 11:29:25;;;;;;;6.85;2.28;;;23.90;99.50;;;;;;5031706;28;20069;-57
2023/09/11 11:31:55;;;;;;;25.48;2.72;;;23.90;99.60;;;;;;5031895;28;20379;-58
2023/09/11 11:34:22;;;;;;;4.93;2.08;;;24.00;99.40;;;;;;5031361;28;20141;-53
2023/09/11 11:36:49;;;;;;;6.95;2.00;;;24.00;99.30;;;;;;5032385;28;20038;-58
2023/09/11 11:39:15;;;;;;;5.80;2.20;;;24.00;99.20;;;;;;5031244;28;20036;-57
2023/09/11 11:41:42;;;;;;;4.55;1.95;;;24.10;99.20;;;;;;5031896;28;20088;-58
2023/09/11 11:44:09;;;;;;;4.32;1.90;;;24.10;98.80;;;;;;5031395;28;20068;-58
2023/09/11 11:46:36;;;;;;;4.25;1.73;;;24.10;98.90;;;;;;5030640;28;20037;-59
2023/09/11 11:49:03;;;;;;;3.70;2.00;;;24.10;99.00;;;;;;5028971;28;20049;-56
2023/09/11 11:51:30;;;;;;;5.55;1.80;;;24.10;98.70;;;;;;5033621;28;20451;-54
2023/09/11 11:53:56;;;;;;;5.05;1.95;;;24.10;98.20;;;;;;5036022;28;20475;-57
2023/09/11 11:56:23;;;;;;;4.57;1.77;;;24.10;98.20;;;;;;5034901;28;20374;-52
2023/09/11 11:58:51;;;;;;;3.72;1.58;;;24.00;98.00;;;;;;5035621;28;20476;-59
2023/09/11 12:01:17;;;;;;;3.38;1.75;;;24.00;98.20;;;;;;5033396;28;20145;-60
2023/09/11 12:03:44;;;;;;;3.63;1.80;;;24.00;98.10;;;;;;5034994;28;20049;-58
2023/09/11 12:06:11;;;;;;;5.50;2.10;;;24.00;98.60;;;;;;5035815;28;20539;-55
2023/09/11 12:08:38;;;;;;;9.68;2.45;;;24.10;98.60;;;;;;5034060;28;20050;-56
2023/09/11 12:11:05;;;;;;;7.22;1.92;;;24.30;98.70;;;;;;5035963;28;20155;-58
2023/09/11 12:13:32;;;;;;;5.00;1.98;;;24.40;98.20;;;;;;5034746;28;20489;-58
2023/09/11 12:16:15;;;;;;;17.33;2.58;;;24.40;98.10;;;;;;5034599;28;20060;-58
2023/09/11 12:18:42;;;;;;;47.08;4.47;;;24.50;98.00;;;;;;5034822;28;20037;-59
2023/09/11 12:21:10;;;;;;;12.80;2.40;;;24.60;97.80;;;;;;5034350;28;20076;-59
2023/09/11 12:23:37;;;;;;;12.18;2.58;;;24.80;97.60;;;;;;5035387;28;20072;-56
2023/09/11 12:26:03;;;;;;;3.97;1.83;;;24.90;97.50;;;;;;5034743;28;20037;-59
2023/09/11 12:28:30;;;;;;;9.15;2.00;;;25.00;96.90;;;;;;5034559;28;20073;-55
2023/09/11 12:30:57;;;;;;;4.93;1.67;;;25.00;97.10;;;;;;5035017;28;20083;-55